Weather History for Dover AFB, DE

Change the Weather History Date:

Tuesday, January 14, 2014

  Actual Average Record
Temperature  
Mean Temperature 44 °F -  
Max Temperature 52 °F 43 °F 69 °F (1992)
Min Temperature 37 °F 24 °F 10 °F (1964)
Degree Days  
Heating Degree Days 20    
Moisture  
Dew Point 46 °F    
Average Humidity 98    
Maximum Humidity 100    
Minimum Humidity 67    
Precipitation  
Precipitation 0.34 in - - ()
Sea Level Pressure  
Sea Level Pressure 29.80 in    
Wind  
Wind Speed 8 mph (SW)    
Max Wind Speed 14 mph    
Max Gust Speed 17 mph    
Visibility 7 miles    
Events Fog , Rain    
Averages and records for this station are not official NWS values.
T = Trace of Precipitation, MM = Missing Value Source: NWS Daily Summary

Daily Weather History Graph

Daily Weather History Graph

Search for Another Location

Airport:

Trip Planner

Search our weather history database for the weather conditions in past years. The results will help you decide how hot, cold, wet, or windy it might be!

Date:

Astronomy

Jan. 14, 2014 Rise Set
Actual Time 7:19 AM EST 5:02 PM EST
Civil Twilight 6:50 AM EST 5:31 PM EST
Nautical Twilight 6:17 AM EST 6:04 PM EST
Astronomical Twilight 5:45 AM EST 6:36 PM EST
Moon 4:05 PM EST (1/14) 5:52 AM EST (1/14)
Length of Visible Light 10h 41m
Length of Day
9h 42m
Waxing Gibbous, 98% of the Moon is Illuminated
Jan 14
Waxing Gibbous
Jan 15
Full
Jan 24
Last Quarter
Jan 30
New
Feb 6
First Quarter

Hourly Weather History & Observations

Time (EST) Temp. Windchill Dew Point Humidity Pressure Visibility Wind Dir Wind Speed Gust Speed Precip Events Conditions
12:58 AM 49.3 °F - 43.5 °F 81% 29.88 in 10.0 mi South 10.4 mph - N/A   Mostly Cloudy
1:58 AM 52.2 °F - 41.5 °F 67% 29.88 in 10.0 mi South 12.7 mph - N/A   Clear
2:58 AM 52.5 °F - 43.0 °F 70% 29.86 in 10.0 mi South 13.8 mph - N/A   Clear
3:23 AM 51.8 °F - 44.6 °F 76% 29.84 in 10.0 mi South 10.4 mph - N/A Rain Light Rain
3:58 AM 50.0 °F - 48.0 °F 93% 29.86 in 10.0 mi SW 8.1 mph - 0.02 in Rain Light Rain
4:58 AM 48.7 °F - 48.6 °F 99% 29.82 in 10.0 mi South 6.9 mph - 0.01 in   Light Drizzle
5:58 AM 47.8 °F - 47.8 °F 100% 29.84 in 10.0 mi South 5.8 mph - 0.04 in Rain Light Rain
6:53 AM 48.2 °F - 48.2 °F 100% 29.83 in 9.0 mi South 9.2 mph - N/A Rain Light Rain
6:58 AM 48.4 °F - 48.4 °F 100% 29.84 in 7.0 mi South 10.4 mph - 0.04 in Rain Light Rain
7:08 AM 48.2 °F - 48.2 °F 100% 29.82 in 9.0 mi South 10.4 mph - N/A Rain Light Rain
7:51 AM 48.2 °F - 48.2 °F 100% 29.80 in 10.0 mi South 5.8 mph - N/A   Overcast
7:58 AM 48.6 °F - 48.6 °F 100% 29.80 in 10.0 mi South 4.6 mph - 0.04 in   Overcast
8:58 AM 48.9 °F - 48.9 °F 100% 29.79 in 10.0 mi SSE 6.9 mph - N/A   Mostly Cloudy
9:51 AM 50.0 °F - 50.0 °F 100% 29.79 in 10.0 mi South 9.2 mph - N/A Rain Light Rain
9:58 AM 49.5 °F - 49.5 °F 100% 29.80 in 10.0 mi South 6.9 mph - 0.00 in Rain Light Rain
10:24 AM 50.0 °F - 50.0 °F 100% 29.79 in 10.0 mi South 8.1 mph - N/A   Overcast
10:29 AM 50.0 °F - 50.0 °F 100% 29.78 in 10.0 mi South 9.2 mph - N/A   Overcast
10:39 AM 50.0 °F - 50.0 °F 100% 29.78 in 10.0 mi South 9.2 mph - N/A   Overcast
10:44 AM 50.0 °F - 50.0 °F 100% 29.78 in 10.0 mi South 9.2 mph - N/A   Overcast
10:54 AM 50.0 °F - 50.0 °F 100% 29.78 in 10.0 mi South 9.2 mph - N/A   Overcast
10:58 AM 50.4 °F - 50.4 °F 100% 29.78 in 10.0 mi South 8.1 mph - 0.00 in   Overcast
11:03 AM 50.0 °F - 50.0 °F 100% 29.76 in 10.0 mi South 6.9 mph - N/A   Overcast
11:21 AM 50.0 °F - 50.0 °F 100% 29.75 in 10.0 mi SSW 8.1 mph - N/A   Light Drizzle
11:41 AM 50.0 °F - 50.0 °F 100% 29.74 in 7.0 mi SSW 8.1 mph - N/A Rain Light Rain
11:58 AM 50.5 °F - 50.5 °F 100% 29.73 in 8.0 mi South 5.8 mph - 0.02 in Rain Light Rain
12:43 PM 50.0 °F - 50.0 °F 100% 29.70 in 10.0 mi SW 4.6 mph - N/A   Overcast
12:50 PM 50.0 °F - 50.0 °F 100% 29.69 in 10.0 mi WSW 4.6 mph - N/A   Light Drizzle
12:58 PM 50.5 °F - 50.5 °F 100% 29.70 in 10.0 mi WSW 4.6 mph - 0.02 in Rain Light Rain
1:13 PM 50.0 °F - 50.0 °F 100% 29.69 in 8.0 mi WSW 5.8 mph - N/A Rain Light Rain
1:18 PM 50.0 °F - 50.0 °F 100% 29.68 in 9.0 mi West 5.8 mph - N/A Rain Light Rain
1:48 PM 50.0 °F - 50.0 °F 100% 29.68 in 6.0 mi WSW 9.2 mph - N/A Rain Light Rain
1:58 PM 50.0 °F - 50.0 °F 100% 29.70 in 6.0 mi West 8.1 mph - 0.04 in Rain Light Rain
2:18 PM 50.0 °F - 50.0 °F 100% 29.70 in 10.0 mi West 9.2 mph - N/A Rain Light Rain
2:23 PM 50.0 °F - 50.0 °F 100% 29.69 in 10.0 mi West 11.5 mph 17.3 mph N/A   Light Drizzle
2:38 PM 48.2 °F - 48.2 °F 100% 29.70 in 7.0 mi West 11.5 mph - N/A Rain Light Rain
2:48 PM 48.2 °F - 48.2 °F 100% 29.71 in 8.0 mi West 10.4 mph - N/A Rain Light Rain
2:58 PM 48.4 °F - 48.4 °F 100% 29.72 in 9.0 mi West 9.2 mph - 0.02 in Rain Light Rain
3:43 PM 48.2 °F - 48.2 °F 100% 29.73 in 8.0 mi NW 10.4 mph - N/A Rain Light Rain
3:48 PM 48.2 °F - 48.2 °F 100% 29.73 in 7.0 mi NW 12.7 mph - N/A Rain Rain
3:53 PM 48.2 °F - 48.2 °F 100% 29.72 in 8.0 mi NNW 11.5 mph - N/A Rain Rain
3:58 PM 47.3 °F - 47.3 °F 100% 29.74 in 7.0 mi NW 10.4 mph - 0.05 in Rain Rain
4:45 PM 46.4 °F 41.9 °F 46.4 °F 100% 29.72 in 10.0 mi NNW 9.2 mph - N/A   Mostly Cloudy
4:58 PM 46.0 °F 41.9 °F 46.0 °F 100% 29.74 in 10.0 mi NNW 8.1 mph - 0.03 in   Mostly Cloudy
5:08 PM 46.4 °F 42.9 °F 46.4 °F 100% 29.73 in 10.0 mi NNW 6.9 mph - N/A   Light Drizzle
5:34 PM 46.4 °F 43.5 °F 46.4 °F 100% 29.76 in 10.0 mi WNW 5.8 mph - N/A   Mostly Cloudy
5:58 PM 46.2 °F 44.1 °F 46.2 °F 100% 29.79 in 10.0 mi WSW 4.6 mph - 0.00 in   Mostly Cloudy
5:59 PM 46.4 °F 44.3 °F 46.4 °F 100% 29.78 in 10.0 mi WSW 4.6 mph - N/A Rain Light Rain
6:17 PM 46.4 °F 43.5 °F 46.4 °F 100% 29.79 in 10.0 mi WSW 5.8 mph - N/A   Partly Cloudy
6:58 PM 46.0 °F 43.1 °F 46.0 °F 100% 29.84 in 10.0 mi WSW 5.8 mph - 0.00 in   Overcast
7:58 PM 44.8 °F 41.6 °F 44.8 °F 100% 29.88 in 9.0 mi Variable 5.8 mph - N/A   Partly Cloudy
8:38 PM 42.8 °F 40.1 °F 42.8 °F 100% 29.87 in 2.5 mi SSW 4.6 mph - N/A   Clear
8:43 PM 42.8 °F 39.3 °F 42.8 °F 100% 29.87 in 1.8 mi SSW 5.8 mph - N/A   Clear
8:48 PM 42.8 °F 39.3 °F 42.8 °F 100% 29.87 in 2.0 mi SSW 5.8 mph - N/A   Clear
8:53 PM 42.8 °F 40.1 °F 42.8 °F 100% 29.87 in 1.2 mi SSW 4.6 mph - N/A   Clear
8:58 PM 41.0 °F 38.0 °F 41.0 °F 100% 29.89 in 0.5 mi SSW 4.6 mph - N/A Fog Fog
9:03 PM 41.0 °F 39.0 °F 41.0 °F 100% 29.88 in 0.2 mi WSW 3.5 mph - N/A Fog Fog
9:23 PM 42.8 °F 41.1 °F 42.8 °F 100% 29.87 in 0.2 mi SSW 3.5 mph - N/A Fog Fog
9:28 PM 41.0 °F 39.0 °F 41.0 °F 100% 29.87 in 0.2 mi SSW 3.5 mph - N/A Fog Fog
9:33 PM 41.0 °F 39.0 °F 41.0 °F 100% 29.87 in 0.2 mi SW 3.5 mph - N/A Fog Fog
9:55 PM 37.4 °F - 37.4 °F 100% 29.87 in 0.2 mi South 2.3 mph - N/A Fog Fog
9:58 PM 37.4 °F - 37.4 °F 100% 29.88 in 0.2 mi South 2.3 mph - N/A Fog Fog
10:11 PM 37.4 °F 33.8 °F 37.4 °F 100% 29.88 in 0.2 mi WSW 4.6 mph - N/A Fog Fog
10:58 PM 38.8 °F 35.4 °F 38.8 °F 100% 29.90 in 0.2 mi WSW 4.6 mph - 0.01 in Fog Fog
11:43 PM 37.4 °F 33.8 °F 37.4 °F 100% 29.90 in 0.2 mi SW 4.6 mph - N/A Fog Fog
11:48 PM 37.4 °F 32.8 °F 37.4 °F 100% 29.90 in 0.2 mi SSW 5.8 mph - N/A Fog Fog
11:58 PM 37.4 °F - 37.4 °F 100% 29.91 in 0.2 mi South 2.3 mph - N/A Fog Fog